Burlington, VT

7:21 AM EDT on August 30, 2016 (GMT -0400)
Old North End | | Change Station

Elev 226 ft 44.49 °N, 73.22 °W | Updated 16 seconds ago

Scattered Clouds
Scattered Clouds
60.1 °F
Feels Like 60.1 °F
N
1.1
Wind Variable Wind from SSW
Gusts 2.5 mph

Today
High -- | Low -- °F
--% Chance of Precip.
Yesterday
High -- | Low -- °F
Precip. -- in
Pressure 30.17 in
Visibility 10.0 miles
Clouds Few 4000 ft
Scattered Clouds 15000 ft
Scattered Clouds 20000 ft
Dew Point 55 °F
Humidity 83%
Rainfall 0.00 in
Snow Depth Not available.
6:13 AM 7:32 PM
Waning Crescent, 4% visible
METAR KBTV 301054Z 00000KT 10SM FEW040 SCT150 SCT200 14/12 A3017 RMK AO2 SLP217 T01390117
Pressure 30.17 in
Visibility 10.0 miles
Clouds Few 4000 ft
Scattered Clouds 15000 ft
Scattered Clouds 20000 ft
Dew Point 55 °F
Humidity 83%
Rainfall 0.00 in
Snow Depth Not available.
6:13 AM 7:32 PM
Waning Crescent, 4% visible
METAR KBTV 301054Z 00000KT 10SM FEW040 SCT150 SCT200 14/12 A3017 RMK AO2 SLP217 T01390117

10-Day Weather Forecast

Almanac

Astronomy

Aug. 30, 2016 Rise Set
Actual Time
Civil Twilight
Nautical Twilight
Astronomical Twilight
Moon
Length of Visible Light
Length of Day
Tomorrow will be .
, % of the Moon is Illuminated

Today's Extremes

State Highs State Lows

Community

WunderPhotos

Upload Photos

1,935,804 photos uploaded!

WunderBlog® & News

Nearby

Air Quality

  Air Quality AQ Index Pollutant
Not available.

Snow Depth

Station Depth Elevation

Earthquake Activity

City Distance Mag. Time & Date
Minimum magnitude displayed is 2.5.

Coastal Water Temperatures

Place Temperature

Stations

Nearby Weather Stations

Station Location Temp. Windchill Dew Point Humidity Wind Precip. Elev Updated Type
                   

Watches & Warnings

There are currently no watches in effect.